الصفحة الرئيسية
METAR-TAF:

METAR-TAF

مطار :

شانغهاي-Pudong, جمهورية الصين الشعبية

مطار شانغهاي بودنغ الدولي

دائرة عرض: 31-07N, خط طول: 121-46E, ارتفاع: 4 متر

مراقبة الطقس الحالي

تاريخ ووقت الإصدار 38 دقيقة قبل الساعة 15:30UTC
ريح 6 عقدة من الشرق/الجنوب الشرقي تتزايد حتى 16 عقدة, الاتجاه يتراوح بين الشرق و الجنوب
درجة الحرارة 21°درجة مئوية
الرطوبة 88%
ضغط 1009 hPa
الرؤية: 6000 متر

METAR: ZSPD 221530Z 12003G08MPS 090V180 6000 NSC 21/19 Q1009 NOSIG

زمن: 00:08 (16:08 UTC)

توقعات

تاريخ ووقت الإصدار 6ساعات و 49 دقيقة قبل الساعة 09:19UTC
التوقعات صالحة من22 الساعة 12 UTC إلى 23 الساعة 12 UTC
ريح 8 عقدة من الجنوب/الجنوب الشرقي
الرؤية: 6000 متر
غيوم مفككة على ارتفاع 1100 قدم
مؤقت
من 23 الساعة 06 UTC إلى 23 الساعة 12 UTC
غيوم مفككة على ارتفاع 1000 قدم
غيوم قليلة على ارتفاع 3000 قدم, مزنة ركامية.
ملبد بالغيوم على ارتفاع 3300 قدم
عاصفة رعدية, مطر

TAF: ZSPD 220919Z 2212/2312 16004MPS 6000 BKN011 TX24/2306Z TN15/2221Z TEMPO 2306/2312 TSRA BKN010 FEW030CB OVC033

أرصاد الطقس والتوقعات من أكثر من 4000 مطار (تقارير الطقس للمطار METAR والتنبؤ بالطقس بالمطارTAF).

المحطات المتاحة هي النقط الصفراء والحمراء على الخريطة.

حرك المؤشر فوق النقطة لمعرفة اسم المحطة.

ثم انقر لمعرفة أرصاد وتوقعات الطقس.

لتغيير الخارطة: اضغط على الأزرار الخضراء مع رمز الصليب الأسود للتكبير. على الزر الأخضر مع شرطة للتصغير، أو على الأسهم الخضراء للخرائط المجاورة.


METAR-TAF: